createdAt,value
2018-02-07T00:03:37.600Z,26
2018-02-07T00:13:37.759Z,29
2018-02-07T00:23:37.596Z,32
2018-02-07T00:33:37.614Z,31
2018-02-07T00:43:37.662Z,32
2018-02-07T00:53:37.967Z,29
2018-02-07T01:03:37.687Z,28
2018-02-07T01:13:37.724Z,31
2018-02-07T01:23:37.682Z,28
2018-02-07T01:33:37.737Z,29
2018-02-07T01:43:37.772Z,31
2018-02-07T01:53:37.819Z,27
2018-02-07T02:03:37.730Z,29
2018-02-07T02:13:37.762Z,27
2018-02-07T02:23:37.760Z,31
2018-02-07T02:33:37.683Z,35
2018-02-07T02:43:37.810Z,29
2018-02-07T02:53:37.747Z,32
2018-02-07T03:03:37.784Z,34
2018-02-07T03:13:37.808Z,28
2018-02-07T03:23:37.755Z,32
2018-02-07T03:33:37.794Z,29
2018-02-07T03:43:37.753Z,31
2018-02-07T03:53:37.846Z,30
2018-02-07T04:03:37.707Z,31
2018-02-07T04:13:37.837Z,32
2018-02-07T04:23:37.823Z,29
2018-02-07T04:33:37.861Z,37
2018-02-07T04:43:37.826Z,33
2018-02-07T04:53:37.769Z,31
2018-02-07T05:03:37.864Z,30
2018-02-07T05:13:37.775Z,32
2018-02-07T05:23:37.838Z,30
2018-02-07T05:33:37.928Z,30
2018-02-07T05:43:37.856Z,29
2018-02-07T05:53:37.852Z,32
2018-02-07T06:03:37.840Z,30
2018-02-07T06:13:37.911Z,33
2018-02-07T06:23:37.961Z,31
2018-02-07T06:33:38.085Z,31
2018-02-07T06:43:37.888Z,31
2018-02-07T06:53:38.103Z,28
2018-02-07T07:03:38.075Z,30
2018-02-07T07:13:38.062Z,34
2018-02-07T07:23:38.038Z,25
2018-02-07T07:33:37.965Z,34
2018-02-07T07:43:37.998Z,29
2018-02-07T07:53:37.970Z,32
2018-02-07T08:03:37.964Z,27
2018-02-07T08:13:37.909Z,28
2018-02-07T08:23:38.310Z,29
2018-02-07T08:33:38.003Z,27
2018-02-07T08:43:38.056Z,26
2018-02-07T08:53:37.951Z,29
2018-02-07T09:03:38.060Z,28
2018-02-07T09:13:37.955Z,35
2018-02-07T09:23:38.028Z,30
2018-02-07T09:33:38.040Z,29
2018-02-07T09:43:38.026Z,35
2018-02-07T09:53:38.078Z,31
2018-02-07T10:03:38.003Z,29
2018-02-07T10:13:38.114Z,33
2018-02-07T10:23:38.022Z,29
2018-02-07T10:33:38.015Z,29
2018-02-07T10:43:39.209Z,24
2018-02-07T10:53:38.060Z,30
2018-02-07T11:03:38.255Z,28
2018-02-07T11:13:38.035Z,28
2018-02-07T11:23:38.074Z,24
2018-02-07T11:33:38.086Z,24
2018-02-07T11:43:38.096Z,24
2018-02-07T11:53:38.062Z,26
2018-02-07T12:03:38.163Z,24
2018-02-07T12:13:38.081Z,23
2018-02-07T12:23:38.169Z,22
2018-02-07T12:33:38.217Z,24
2018-02-07T12:43:38.130Z,30
2018-02-07T12:53:38.310Z,27
2018-02-07T13:03:38.159Z,26
2018-02-07T13:13:38.159Z,25
2018-02-07T13:23:38.180Z,29
2018-02-07T13:33:38.195Z,23
2018-02-07T13:43:38.467Z,25
2018-02-07T13:53:38.223Z,21
2018-02-07T14:03:38.265Z,24
2018-02-07T14:13:38.210Z,22
2018-02-07T14:23:38.183Z,26
2018-02-07T14:33:38.275Z,23
2018-02-07T14:43:38.330Z,20
2018-02-07T14:53:38.182Z,23
2018-02-07T15:03:38.247Z,21
2018-02-07T15:13:38.353Z,22
2018-02-07T15:23:38.368Z,21
2018-02-07T15:33:38.204Z,21
2018-02-07T15:43:38.685Z,22
2018-02-07T15:53:38.346Z,24
2018-02-07T16:03:38.388Z,24
2018-02-07T16:13:38.290Z,18
2018-02-07T16:23:38.269Z,20
2018-02-07T16:33:38.260Z,20
2018-02-07T16:43:38.342Z,21
2018-02-07T16:53:38.358Z,23
2018-02-07T17:03:38.369Z,20
2018-02-07T17:13:38.375Z,22
2018-02-07T17:23:38.355Z,20
2018-02-07T17:33:38.548Z,28
2018-02-07T17:43:38.416Z,28
2018-02-07T17:53:38.737Z,23
2018-02-07T18:03:38.543Z,21
2018-02-07T18:13:38.381Z,22
2018-02-07T18:23:38.490Z,22
2018-02-07T18:33:38.384Z,29
2018-02-07T18:43:38.435Z,25
2018-02-07T18:53:38.395Z,28
2018-02-07T19:03:38.525Z,24
2018-02-07T19:13:38.410Z,22
2018-02-07T19:23:38.570Z,24
2018-02-07T19:33:38.462Z,26
2018-02-07T19:43:38.428Z,26
2018-02-07T19:53:38.508Z,27
2018-02-07T20:03:38.451Z,27
2018-02-07T20:13:38.508Z,31
2018-02-07T20:23:38.486Z,27
2018-02-07T20:33:38.502Z,28
2018-02-07T20:43:38.514Z,29
2018-02-07T20:53:38.553Z,27
2018-02-07T21:03:38.509Z,32
2018-02-07T21:13:38.584Z,28
2018-02-07T21:23:38.621Z,30
2018-02-07T21:33:38.671Z,26
2018-02-07T21:43:38.583Z,31
2018-02-07T21:53:38.591Z,31
2018-02-07T22:03:38.576Z,28
2018-02-07T22:13:39.137Z,34
2018-02-07T22:23:38.716Z,29
2018-02-07T22:33:38.683Z,31
2018-02-07T22:43:38.821Z,32
2018-02-07T22:53:38.578Z,26
2018-02-07T23:03:38.464Z,29
2018-02-07T23:13:38.908Z,27
2018-02-07T23:23:38.817Z,27
2018-02-07T23:33:38.808Z,27
2018-02-07T23:43:38.836Z,25
2018-02-07T23:53:38.861Z,30
